Terminal Aerodrome Forecast
Issued by NWS

Home | Current Version | Previous Version | Text Only | Print | Product List | Glossary On
Versions: 1 2 3 4 5 6 7 8 9 10 11 12
462
FTUS44 KLIX 221727
TAFGPT
TAF
KGPT 221727Z 2218/2318 VRB03KT P6SM FEW040
     FM221930 13007KT P6SM VCTS SCT040CB
     FM230000 VRB03KT P6SM FEW250
     FM231400 07004KT P6SM FEW030=

USA.gov is the U.S. government's official web portal to all federal, state and local government web resources and services.